CMP237 MROC-MPTO
Flight info
| Callsign | CMP237 |
|---|---|
| Flight time | 1h 1m |
| Altitude | 31000 |
| Route | TEJAR3M LIO UA317 BUFEO DCT BITOR VALIS1 |
| Aircraft | B738/M-SDE2E3FGHIRWXY/LB1 |
Departure
| Time | 2026-04-28 21:38 |
|---|---|
| Airport | Juan Santamaría International Airport (MROC) |
Arrival
| Time | 2026-04-28 22:39 |
|---|---|
| Airport | Tocumen International Airport (MPTO) |
| Time | Latitude | Longitude | Altitude | Speed | Heading |
|---|---|---|---|---|---|
| 2026-04-28 21:12 | 9.99711 | -84.20452 | 3033 ft | 0 kts | 339° |
| 2026-04-28 21:21 | 9.99710 | -84.20452 | 3033 ft | 0 kts | 339° |
| 2026-04-28 21:21 | 9.99709 | -84.20452 | 3033 ft | 0 kts | 339° |
| 2026-04-28 21:22 | 9.99708 | -84.20451 | 3033 ft | 0 kts | 339° |
| 2026-04-28 21:23 | 9.99693 | -84.20450 | 3035 ft | 3 kts | 27° |
| 2026-04-28 21:23 | 9.99675 | -84.20452 | 3035 ft | 3 kts | 321° |
| 2026-04-28 21:23 | 9.99667 | -84.20436 | 3033 ft | 3 kts | 255° |
| 2026-04-28 21:23 | 9.99668 | -84.20430 | 3033 ft | 0 kts | 248° |
| 2026-04-28 21:29 | 9.99667 | -84.20433 | 3033 ft | 1 kts | 245° |
| 2026-04-28 21:29 | 9.99658 | -84.20451 | 3034 ft | 4 kts | 242° |
| 2026-04-28 21:29 | 9.99641 | -84.20483 | 3037 ft | 6 kts | 242° |
| 2026-04-28 21:30 | 9.99620 | -84.20530 | 3035 ft | 8 kts | 250° |
| 2026-04-28 21:30 | 9.99598 | -84.20591 | 3036 ft | 9 kts | 249° |
| 2026-04-28 21:30 | 9.99575 | -84.20651 | 3035 ft | 9 kts | 250° |
| 2026-04-28 21:30 | 9.99553 | -84.20710 | 3033 ft | 9 kts | 249° |
| 2026-04-28 21:31 | 9.99530 | -84.20767 | 3035 ft | 9 kts | 249° |
| 2026-04-28 21:31 | 9.99510 | -84.20823 | 3033 ft | 8 kts | 249° |
| 2026-04-28 21:31 | 9.99490 | -84.20879 | 3032 ft | 9 kts | 250° |
| 2026-04-28 21:31 | 9.99463 | -84.20952 | 3027 ft | 14 kts | 250° |
| 2026-04-28 21:32 | 9.99422 | -84.21061 | 3013 ft | 20 kts | 248° |
| 2026-04-28 21:32 | 9.99365 | -84.21208 | 3007 ft | 23 kts | 249° |
| 2026-04-28 21:32 | 9.99308 | -84.21361 | 2993 ft | 24 kts | 248° |
| 2026-04-28 21:32 | 9.99245 | -84.21533 | 2979 ft | 28 kts | 250° |
| 2026-04-28 21:33 | 9.99172 | -84.21723 | 2971 ft | 29 kts | 249° |
| 2026-04-28 21:33 | 9.99124 | -84.21856 | 2960 ft | 13 kts | 248° |
| 2026-04-28 21:33 | 9.99095 | -84.21948 | 2952 ft | 14 kts | 267° |
| 2026-04-28 21:33 | 9.99106 | -84.22053 | 2945 ft | 15 kts | 265° |
| 2026-04-28 21:34 | 9.99077 | -84.22144 | 2943 ft | 10 kts | 250° |
| 2026-04-28 21:34 | 9.99050 | -84.22191 | 2945 ft | 9 kts | 218° |
| 2026-04-28 21:34 | 9.99033 | -84.22199 | 2947 ft | 0 kts | 200° |
| 2026-04-28 21:36 | 9.99029 | -84.22201 | 2947 ft | 2 kts | 199° |
| 2026-04-28 21:36 | 9.98991 | -84.22200 | 2942 ft | 7 kts | 159° |
| 2026-04-28 21:37 | 9.98945 | -84.22182 | 2947 ft | 7 kts | 159° |
| 2026-04-28 21:37 | 9.98922 | -84.22142 | 2946 ft | 7 kts | 90° |
| 2026-04-28 21:37 | 9.98933 | -84.22095 | 2950 ft | 7 kts | 84° |
| 2026-04-28 21:37 | 9.98956 | -84.22040 | 2947 ft | 21 kts | 67° |
| 2026-04-28 21:38 | 9.99087 | -84.21694 | 2974 ft | 83 kts | 69° |
| 2026-04-28 21:38 | 9.99361 | -84.20964 | 3014 ft | 135 kts | 69° |
| 2026-04-28 21:38 | 9.99741 | -84.19954 | 3258 ft | 162 kts | 73° |
| 2026-04-28 21:38 | 10.00148 | -84.18842 | 3738 ft | 180 kts | 71° |
| 2026-04-28 21:39 | 10.00591 | -84.17614 | 4365 ft | 192 kts | 69° |
| 2026-04-28 21:39 | 10.01070 | -84.16381 | 5093 ft | 187 kts | 68° |
| 2026-04-28 21:39 | 10.01554 | -84.15152 | 5736 ft | 189 kts | 65° |
| 2026-04-28 21:39 | 10.01863 | -84.14372 | 6169 ft | 191 kts | 67° |
| 2026-04-28 21:40 | 10.02124 | -84.13635 | 6538 ft | 189 kts | 71° |
| 2026-04-28 21:41 | 10.02218 | -84.12297 | 7157 ft | 191 kts | 94° |
| 2026-04-28 21:41 | 10.02188 | -84.12143 | 7230 ft | 191 kts | 98° |
| 2026-04-28 21:42 | 10.01895 | -84.11308 | 7474 ft | 206 kts | 111° |
| 2026-04-28 21:42 | 10.00957 | -84.10153 | 7874 ft | 211 kts | 133° |
| 2026-04-28 21:43 | 9.99799 | -84.09245 | 8357 ft | 214 kts | 138° |
| 2026-04-28 21:43 | 9.98564 | -84.08331 | 8634 ft | 230 kts | 138° |
| 2026-04-28 21:43 | 9.97211 | -84.07299 | 8798 ft | 256 kts | 137° |
| 2026-04-28 21:43 | 9.95738 | -84.06130 | 9054 ft | 282 kts | 136° |
| 2026-04-28 21:44 | 9.94146 | -84.04827 | 9416 ft | 301 kts | 136° |
| 2026-04-28 21:44 | 9.92504 | -84.03467 | 10107 ft | 306 kts | 136° |
| 2026-04-28 21:44 | 9.90843 | -84.02104 | 10802 ft | 309 kts | 137° |
| 2026-04-28 21:44 | 9.89135 | -84.00756 | 11486 ft | 313 kts | 138° |
| 2026-04-28 21:45 | 9.87392 | -83.99377 | 11781 ft | 331 kts | 137° |
| 2026-04-28 21:45 | 9.85550 | -83.97899 | 12172 ft | 342 kts | 137° |
| 2026-04-28 21:45 | 9.83771 | -83.96269 | 12768 ft | 344 kts | 124° |
| 2026-04-28 21:45 | 9.82645 | -83.94129 | 13375 ft | 347 kts | 103° |
| 2026-04-28 21:46 | 9.82337 | -83.91700 | 13910 ft | 352 kts | 84° |
| 2026-04-28 21:46 | 9.82542 | -83.89214 | 14437 ft | 355 kts | 79° |
| 2026-04-28 21:46 | 9.82810 | -83.86717 | 15029 ft | 356 kts | 80° |
| 2026-04-28 21:46 | 9.83050 | -83.84204 | 15563 ft | 360 kts | 81° |
| 2026-04-28 21:47 | 9.83261 | -83.81694 | 16064 ft | 363 kts | 82° |
| 2026-04-28 21:47 | 9.83471 | -83.79124 | 16581 ft | 367 kts | 81° |
| 2026-04-28 21:47 | 9.83687 | -83.76537 | 17088 ft | 370 kts | 82° |
| 2026-04-28 21:47 | 9.83885 | -83.73919 | 17584 ft | 373 kts | 82° |
| 2026-04-28 21:48 | 9.84057 | -83.71468 | 18039 ft | 376 kts | 81° |
| 2026-04-28 21:48 | 9.84306 | -83.68811 | 18427 ft | 380 kts | 81° |
| 2026-04-28 21:48 | 9.84467 | -83.66155 | 18839 ft | 383 kts | 86° |
| 2026-04-28 21:48 | 9.84417 | -83.63413 | 19314 ft | 385 kts | 94° |
| 2026-04-28 21:49 | 9.84077 | -83.60745 | 19770 ft | 388 kts | 102° |
| 2026-04-28 21:49 | 9.83623 | -83.58026 | 20168 ft | 394 kts | 95° |
| 2026-04-28 21:49 | 9.83906 | -83.55254 | 20609 ft | 398 kts | 72° |
| 2026-04-28 21:49 | 9.84935 | -83.52621 | 20971 ft | 406 kts | 67° |
| 2026-04-28 21:50 | 9.86031 | -83.49939 | 21119 ft | 417 kts | 69° |
| 2026-04-28 21:50 | 9.87016 | -83.47128 | 21264 ft | 428 kts | 73° |
| 2026-04-28 21:50 | 9.87850 | -83.44235 | 21368 ft | 437 kts | 76° |
| 2026-04-28 21:50 | 9.88581 | -83.41208 | 21545 ft | 445 kts | 78° |
| 2026-04-28 21:51 | 9.89242 | -83.38118 | 21683 ft | 452 kts | 79° |
| 2026-04-28 21:51 | 9.89868 | -83.34986 | 21989 ft | 453 kts | 79° |
| 2026-04-28 21:51 | 9.90485 | -83.31842 | 22304 ft | 455 kts | 79° |
| 2026-04-28 21:51 | 9.91103 | -83.28694 | 22611 ft | 456 kts | 79° |
| 2026-04-28 21:52 | 9.91729 | -83.25530 | 22927 ft | 457 kts | 79° |
| 2026-04-28 21:52 | 9.92360 | -83.22369 | 23264 ft | 458 kts | 79° |
| 2026-04-28 21:52 | 9.92995 | -83.19202 | 23583 ft | 459 kts | 79° |
| 2026-04-28 21:52 | 9.93634 | -83.16018 | 23861 ft | 460 kts | 79° |
| 2026-04-28 21:53 | 9.94272 | -83.12835 | 24142 ft | 461 kts | 79° |
| 2026-04-28 21:53 | 9.94903 | -83.09686 | 24429 ft | 462 kts | 79° |
| 2026-04-28 21:53 | 9.95543 | -83.06494 | 24713 ft | 462 kts | 79° |
| 2026-04-28 21:53 | 9.96017 | -83.03271 | 24973 ft | 461 kts | 91° |
| 2026-04-28 21:54 | 9.95599 | -83.00069 | 25272 ft | 457 kts | 108° |
| 2026-04-28 21:54 | 9.94625 | -82.97010 | 25601 ft | 455 kts | 111° |
| 2026-04-28 21:54 | 9.93597 | -82.93964 | 25881 ft | 455 kts | 111° |
| 2026-04-28 21:54 | 9.92567 | -82.90919 | 26183 ft | 455 kts | 111° |
| 2026-04-28 21:55 | 9.91563 | -82.87913 | 26487 ft | 455 kts | 111° |
| 2026-04-28 21:55 | 9.90549 | -82.84822 | 26792 ft | 455 kts | 110° |
| 2026-04-28 21:55 | 9.89575 | -82.81822 | 27095 ft | 454 kts | 110° |
| 2026-04-28 21:55 | 9.88592 | -82.78776 | 27408 ft | 454 kts | 110° |
| 2026-04-28 21:56 | 9.87614 | -82.75736 | 27711 ft | 453 kts | 110° |
| 2026-04-28 21:56 | 9.87050 | -82.73985 | 27898 ft | 452 kts | 111° |
| 2026-04-28 21:56 | 9.86074 | -82.70955 | 28213 ft | 451 kts | 111° |
| 2026-04-28 21:56 | 9.85100 | -82.67934 | 28536 ft | 450 kts | 111° |
| 2026-04-28 21:57 | 9.84127 | -82.64922 | 28864 ft | 449 kts | 111° |
| 2026-04-28 21:57 | 9.83155 | -82.61911 | 29197 ft | 448 kts | 111° |
| 2026-04-28 21:57 | 9.82185 | -82.58909 | 29540 ft | 447 kts | 111° |
| 2026-04-28 21:57 | 9.81312 | -82.56217 | 29888 ft | 445 kts | 112° |
| 2026-04-28 21:58 | 9.80309 | -82.53244 | 30235 ft | 443 kts | 112° |
| 2026-04-28 21:58 | 9.79289 | -82.50302 | 30573 ft | 441 kts | 113° |
| 2026-04-28 21:58 | 9.78282 | -82.47425 | 30882 ft | 441 kts | 113° |
| 2026-04-28 21:58 | 9.77283 | -82.44579 | 30892 ft | 450 kts | 113° |
| 2026-04-28 21:59 | 9.75178 | -82.38556 | 30890 ft | 452 kts | 113° |
| 2026-04-28 22:00 | 9.72076 | -82.29613 | 30903 ft | 447 kts | 113° |
| 2026-04-28 22:00 | 9.70000 | -82.23639 | 30920 ft | 458 kts | 113° |
| 2026-04-28 22:01 | 9.67842 | -82.17438 | 30916 ft | 474 kts | 112° |
| 2026-04-28 22:01 | 9.65617 | -82.11040 | 30910 ft | 488 kts | 112° |
| 2026-04-28 22:02 | 9.63332 | -82.04465 | 30907 ft | 498 kts | 112° |
| 2026-04-28 22:02 | 9.61039 | -81.97866 | 30890 ft | 499 kts | 112° |
| 2026-04-28 22:03 | 9.58733 | -81.91235 | 30897 ft | 498 kts | 112° |
| 2026-04-28 22:03 | 9.56426 | -81.84613 | 30900 ft | 498 kts | 112° |
| 2026-04-28 22:04 | 9.54506 | -81.79110 | 30895 ft | 497 kts | 112° |
| 2026-04-28 22:04 | 9.51889 | -81.71610 | 30899 ft | 497 kts | 112° |
| 2026-04-28 22:05 | 9.49954 | -81.66067 | 30901 ft | 497 kts | 112° |
| 2026-04-28 22:05 | 9.47660 | -81.59504 | 30898 ft | 497 kts | 112° |
| 2026-04-28 22:06 | 9.45347 | -81.52888 | 30901 ft | 497 kts | 112° |
| 2026-04-28 22:06 | 9.43040 | -81.46295 | 30901 ft | 497 kts | 112° |
| 2026-04-28 22:07 | 9.40730 | -81.39694 | 30900 ft | 497 kts | 112° |
| 2026-04-28 22:07 | 9.38432 | -81.33135 | 30902 ft | 497 kts | 112° |
| 2026-04-28 22:08 | 9.36117 | -81.26533 | 30895 ft | 497 kts | 112° |
| 2026-04-28 22:08 | 9.33801 | -81.19930 | 30898 ft | 497 kts | 112° |
| 2026-04-28 22:09 | 9.31487 | -81.13338 | 30899 ft | 497 kts | 112° |
| 2026-04-28 22:09 | 9.29170 | -81.06742 | 30899 ft | 497 kts | 112° |
| 2026-04-28 22:10 | 9.26911 | -81.00173 | 30893 ft | 498 kts | 107° |
| 2026-04-28 22:10 | 9.26443 | -80.96673 | 30917 ft | 503 kts | 94° |
| 2026-04-28 22:10 | 9.26329 | -80.93139 | 30898 ft | 504 kts | 94° |
| 2026-04-28 22:11 | 9.26123 | -80.86050 | 30896 ft | 504 kts | 94° |
| 2026-04-28 22:11 | 9.25849 | -80.78949 | 30895 ft | 504 kts | 95° |
| 2026-04-28 22:12 | 9.25533 | -80.71990 | 30895 ft | 504 kts | 95° |
| 2026-04-28 22:12 | 9.25199 | -80.64898 | 30896 ft | 504 kts | 95° |
| 2026-04-28 22:13 | 9.24866 | -80.57802 | 30891 ft | 504 kts | 95° |
| 2026-04-28 22:13 | 9.24536 | -80.50743 | 30893 ft | 504 kts | 95° |
| 2026-04-28 22:14 | 9.24205 | -80.43651 | 30891 ft | 503 kts | 95° |
| 2026-04-28 22:14 | 9.23872 | -80.36575 | 30890 ft | 503 kts | 95° |
| 2026-04-28 22:15 | 9.23544 | -80.29589 | 30508 ft | 495 kts | 95° |
| 2026-04-28 22:15 | 9.23380 | -80.26121 | 29900 ft | 492 kts | 94° |
| 2026-04-28 22:15 | 9.23213 | -80.22621 | 28652 ft | 501 kts | 94° |
| 2026-04-28 22:15 | 9.23044 | -80.19080 | 27525 ft | 506 kts | 94° |
| 2026-04-28 22:16 | 9.22876 | -80.15558 | 26427 ft | 509 kts | 94° |
| 2026-04-28 22:16 | 9.22705 | -80.11979 | 25368 ft | 510 kts | 94° |
| 2026-04-28 22:16 | 9.22533 | -80.08381 | 24515 ft | 507 kts | 94° |
| 2026-04-28 22:16 | 9.22368 | -80.04905 | 24320 ft | 479 kts | 94° |
| 2026-04-28 22:17 | 9.22212 | -80.01624 | 24165 ft | 455 kts | 94° |
| 2026-04-28 22:17 | 9.22059 | -79.98465 | 23828 ft | 446 kts | 94° |
| 2026-04-28 22:17 | 9.21904 | -79.95303 | 23020 ft | 449 kts | 95° |
| 2026-04-28 22:17 | 9.21752 | -79.92179 | 22211 ft | 451 kts | 95° |
| 2026-04-28 22:18 | 9.21326 | -79.89045 | 21368 ft | 450 kts | 109° |
| 2026-04-28 22:18 | 9.19948 | -79.86232 | 20636 ft | 446 kts | 126° |
| 2026-04-28 22:18 | 9.17905 | -79.83896 | 19857 ft | 444 kts | 141° |
| 2026-04-28 22:18 | 9.15369 | -79.82119 | 19127 ft | 442 kts | 150° |
| 2026-04-28 22:19 | 9.12669 | -79.80613 | 18398 ft | 441 kts | 152° |
| 2026-04-28 22:19 | 9.10002 | -79.79137 | 17602 ft | 440 kts | 151° |
| 2026-04-28 22:19 | 9.07354 | -79.77582 | 16780 ft | 439 kts | 147° |
| 2026-04-28 22:19 | 9.04843 | -79.75826 | 15980 ft | 437 kts | 143° |
| 2026-04-28 22:20 | 9.02419 | -79.73977 | 15473 ft | 429 kts | 142° |
| 2026-04-28 22:20 | 9.00102 | -79.72185 | 15366 ft | 410 kts | 147° |
| 2026-04-28 22:20 | 8.97545 | -79.71061 | 15259 ft | 395 kts | 166° |
| 2026-04-28 22:20 | 8.94864 | -79.70813 | 15181 ft | 381 kts | 180° |
| 2026-04-28 22:21 | 8.92256 | -79.70955 | 15096 ft | 367 kts | 184° |
| 2026-04-28 22:21 | 8.89773 | -79.71158 | 14726 ft | 363 kts | 184° |
| 2026-04-28 22:21 | 8.87250 | -79.71379 | 14110 ft | 368 kts | 184° |
| 2026-04-28 22:21 | 8.84673 | -79.71618 | 13414 ft | 374 kts | 184° |
| 2026-04-28 22:22 | 8.82064 | -79.71868 | 12670 ft | 379 kts | 185° |
| 2026-04-28 22:22 | 8.79422 | -79.72123 | 11945 ft | 383 kts | 185° |
| 2026-04-28 22:22 | 8.76761 | -79.72377 | 11220 ft | 386 kts | 184° |
| 2026-04-28 22:22 | 8.74073 | -79.72634 | 10532 ft | 389 kts | 184° |
| 2026-04-28 22:23 | 8.71371 | -79.72891 | 9849 ft | 391 kts | 185° |
| 2026-04-28 22:23 | 8.68651 | -79.73147 | 9107 ft | 392 kts | 185° |
| 2026-04-28 22:23 | 8.65966 | -79.73396 | 8377 ft | 393 kts | 185° |
| 2026-04-28 22:23 | 8.63272 | -79.73866 | 7636 ft | 394 kts | 198° |
| 2026-04-28 22:24 | 8.60829 | -79.75110 | 6942 ft | 393 kts | 214° |
| 2026-04-28 22:24 | 8.58721 | -79.76875 | 6360 ft | 390 kts | 224° |
| 2026-04-28 22:24 | 8.56713 | -79.78677 | 5859 ft | 380 kts | 215° |
| 2026-04-28 22:24 | 8.54357 | -79.79658 | 5356 ft | 367 kts | 188° |
| 2026-04-28 22:25 | 8.51879 | -79.79501 | 4867 ft | 353 kts | 161° |
| 2026-04-28 22:25 | 8.49746 | -79.78446 | 4782 ft | 327 kts | 145° |
| 2026-04-28 22:25 | 8.48042 | -79.77048 | 4758 ft | 306 kts | 132° |
| 2026-04-28 22:25 | 8.46762 | -79.75412 | 4759 ft | 289 kts | 119° |
| 2026-04-28 22:26 | 8.45930 | -79.73629 | 4760 ft | 273 kts | 105° |
| 2026-04-28 22:26 | 8.45574 | -79.71807 | 4755 ft | 257 kts | 90° |
| 2026-04-28 22:26 | 8.45660 | -79.70083 | 4751 ft | 241 kts | 76° |
| 2026-04-28 22:26 | 8.45720 | -79.69769 | 4753 ft | 238 kts | 74° |
| 2026-04-28 22:27 | 8.45815 | -79.69378 | 4754 ft | 234 kts | 71° |
| 2026-04-28 22:27 | 8.46394 | -79.67896 | 4751 ft | 219 kts | 59° |
| 2026-04-28 22:27 | 8.47218 | -79.66626 | 4772 ft | 214 kts | 49° |
| 2026-04-28 22:27 | 8.48191 | -79.65494 | 4775 ft | 213 kts | 44° |
| 2026-04-28 22:28 | 8.49260 | -79.64495 | 4766 ft | 205 kts | 36° |
| 2026-04-28 22:28 | 8.50430 | -79.63737 | 4657 ft | 194 kts | 24° |
| 2026-04-28 22:28 | 8.51666 | -79.63295 | 4540 ft | 189 kts | 15° |
| 2026-04-28 22:28 | 8.52929 | -79.62949 | 4429 ft | 187 kts | 14° |
| 2026-04-28 22:29 | 8.54187 | -79.62617 | 4318 ft | 187 kts | 14° |
| 2026-04-28 22:29 | 8.55444 | -79.62287 | 4191 ft | 186 kts | 14° |
| 2026-04-28 22:29 | 8.56696 | -79.61960 | 4091 ft | 185 kts | 14° |
| 2026-04-28 22:29 | 8.57992 | -79.61621 | 4024 ft | 206 kts | 13° |
| 2026-04-28 22:30 | 8.59447 | -79.61242 | 3934 ft | 222 kts | 14° |
| 2026-04-28 22:30 | 8.60946 | -79.60851 | 3823 ft | 226 kts | 14° |
| 2026-04-28 22:30 | 8.62457 | -79.60456 | 3713 ft | 222 kts | 13° |
| 2026-04-28 22:30 | 8.63945 | -79.60068 | 3596 ft | 220 kts | 13° |
| 2026-04-28 22:31 | 8.65423 | -79.59682 | 3482 ft | 218 kts | 13° |
| 2026-04-28 22:31 | 8.66917 | -79.59293 | 3388 ft | 227 kts | 14° |
| 2026-04-28 22:31 | 8.68461 | -79.58890 | 3296 ft | 232 kts | 13° |
| 2026-04-28 22:31 | 8.70026 | -79.58482 | 3220 ft | 233 kts | 13° |
| 2026-04-28 22:32 | 8.71594 | -79.58073 | 3107 ft | 232 kts | 13° |
| 2026-04-28 22:32 | 8.73138 | -79.57670 | 2997 ft | 231 kts | 13° |
| 2026-04-28 22:32 | 8.74696 | -79.57264 | 2881 ft | 230 kts | 13° |
| 2026-04-28 22:32 | 8.76241 | -79.56861 | 2778 ft | 229 kts | 13° |
| 2026-04-28 22:33 | 8.77787 | -79.56458 | 2670 ft | 230 kts | 13° |
| 2026-04-28 22:33 | 8.79287 | -79.55859 | 2573 ft | 235 kts | 30° |
| 2026-04-28 22:33 | 8.80615 | -79.54897 | 2480 ft | 234 kts | 33° |
| 2026-04-28 22:33 | 8.81922 | -79.53942 | 2385 ft | 233 kts | 33° |
| 2026-04-28 22:34 | 8.83237 | -79.52988 | 2295 ft | 233 kts | 32° |
| 2026-04-28 22:34 | 8.84556 | -79.52035 | 2198 ft | 233 kts | 32° |
| 2026-04-28 22:34 | 8.85856 | -79.51028 | 2090 ft | 234 kts | 36° |
| 2026-04-28 22:34 | 8.87119 | -79.49998 | 2041 ft | 233 kts | 36° |
| 2026-04-28 22:35 | 8.88384 | -79.48966 | 2062 ft | 233 kts | 35° |
| 2026-04-28 22:35 | 8.89625 | -79.47956 | 2044 ft | 224 kts | 35° |
| 2026-04-28 22:35 | 8.90877 | -79.47096 | 2052 ft | 212 kts | 25° |
| 2026-04-28 22:35 | 8.92128 | -79.46424 | 2033 ft | 198 kts | 24° |
| 2026-04-28 22:36 | 8.93280 | -79.45790 | 2037 ft | 180 kts | 25° |
| 2026-04-28 22:36 | 8.94328 | -79.45200 | 2025 ft | 168 kts | 28° |
| 2026-04-28 22:36 | 8.95333 | -79.44629 | 2021 ft | 164 kts | 27° |
| 2026-04-28 22:36 | 8.96348 | -79.44052 | 1832 ft | 171 kts | 26° |
| 2026-04-28 22:37 | 8.97388 | -79.43460 | 1621 ft | 177 kts | 26° |
| 2026-04-28 22:37 | 8.98426 | -79.42868 | 1397 ft | 165 kts | 25° |
| 2026-04-28 22:37 | 8.99365 | -79.42334 | 1182 ft | 144 kts | 28° |
| 2026-04-28 22:37 | 9.00195 | -79.41861 | 1009 ft | 131 kts | 26° |
| 2026-04-28 22:38 | 9.00967 | -79.41422 | 854 ft | 128 kts | 26° |
| 2026-04-28 22:38 | 9.01786 | -79.40955 | 693 ft | 138 kts | 23° |
| 2026-04-28 22:38 | 9.02597 | -79.40500 | 551 ft | 139 kts | 24° |
| 2026-04-28 22:38 | 9.03429 | -79.40015 | 373 ft | 137 kts | 23° |
| 2026-04-28 22:39 | 9.04253 | -79.39553 | 173 ft | 134 kts | 26° |
| 2026-04-28 22:39 | 9.05042 | -79.39098 | 37 ft | 124 kts | 26° |
| 2026-04-28 22:39 | 9.05706 | -79.38727 | 30 ft | 88 kts | 29° |
| 2026-04-28 22:39 | 9.06108 | -79.38499 | 30 ft | 44 kts | 28° |
| 2026-04-28 22:40 | 9.06259 | -79.38413 | 29 ft | 14 kts | 30° |
| 2026-04-28 22:40 | 9.06345 | -79.38377 | 29 ft | 13 kts | 4° |
| 2026-04-28 22:40 | 9.06444 | -79.38377 | 28 ft | 15 kts | 0° |
| 2026-04-28 22:40 | 9.06527 | -79.38377 | 29 ft | 9 kts | 360° |
| 2026-04-28 22:41 | 9.06591 | -79.38377 | 29 ft | 9 kts | 359° |
| 2026-04-28 22:41 | 9.06649 | -79.38395 | 29 ft | 9 kts | 311° |
| 2026-04-28 22:41 | 9.06653 | -79.38453 | 29 ft | 9 kts | 233° |
| 2026-04-28 22:41 | 9.06604 | -79.38488 | 29 ft | 9 kts | 207° |
| 2026-04-28 22:42 | 9.06552 | -79.38517 | 29 ft | 8 kts | 208° |
| 2026-04-28 22:42 | 9.06503 | -79.38544 | 29 ft | 8 kts | 206° |
| 2026-04-28 22:42 | 9.06453 | -79.38568 | 29 ft | 8 kts | 207° |
| 2026-04-28 22:42 | 9.06406 | -79.38594 | 29 ft | 8 kts | 208° |
| 2026-04-28 22:43 | 9.06360 | -79.38619 | 29 ft | 7 kts | 206° |
| 2026-04-28 22:43 | 9.06315 | -79.38642 | 29 ft | 7 kts | 207° |
| 2026-04-28 22:43 | 9.06273 | -79.38664 | 29 ft | 7 kts | 208° |
| 2026-04-28 22:43 | 9.06217 | -79.38694 | 29 ft | 11 kts | 208° |
| 2026-04-28 22:44 | 9.06135 | -79.38740 | 29 ft | 15 kts | 210° |
| 2026-04-28 22:44 | 9.06063 | -79.38781 | 29 ft | 5 kts | 208° |
| 2026-04-28 22:44 | 9.06031 | -79.38799 | 29 ft | 5 kts | 209° |
| 2026-04-28 22:44 | 9.06013 | -79.38829 | 29 ft | 6 kts | 277° |
| 2026-04-28 22:45 | 9.06037 | -79.38872 | 29 ft | 8 kts | 302° |
| 2026-04-28 22:45 | 9.06068 | -79.38924 | 29 ft | 9 kts | 294° |
| 2026-04-28 22:45 | 9.06046 | -79.38978 | 29 ft | 10 kts | 218° |
| 2026-04-28 22:45 | 9.05989 | -79.39016 | 29 ft | 10 kts | 209° |
| 2026-04-28 22:46 | 9.05930 | -79.39050 | 29 ft | 10 kts | 212° |
| 2026-04-28 22:46 | 9.05904 | -79.39072 | 29 ft | 1 kts | 244° |
| 2026-04-28 22:46 | 9.05913 | -79.39088 | 29 ft | 4 kts | 329° |
| 2026-04-28 22:46 | 9.05937 | -79.39105 | 29 ft | 4 kts | 322° |
| 2026-04-28 22:47 | 9.05959 | -79.39122 | 29 ft | 4 kts | 323° |
| 2026-04-28 22:47 | 9.05981 | -79.39139 | 29 ft | 4 kts | 326° |
| 2026-04-28 22:47 | 9.05989 | -79.39144 | 29 ft | 1 kts | 327° |
| 2026-04-28 22:47 | 9.05990 | -79.39145 | 29 ft | 0 kts | 327° |